createdAt,value
2018-06-08T00:01:06.448Z,101487.98
2018-06-08T00:03:35.754Z,101495.36
2018-06-08T00:06:04.531Z,101496.92
2018-06-08T00:08:33.356Z,101495.12
2018-06-08T00:11:02.295Z,101500.70
2018-06-08T00:13:31.499Z,101502.22
2018-06-08T00:16:00.290Z,101502.80
2018-06-08T00:18:29.346Z,101501.13
2018-06-08T00:20:58.154Z,101496.77
2018-06-08T00:23:26.972Z,101494.19
2018-06-08T00:25:56.067Z,101502.84
2018-06-08T00:28:24.819Z,101505.70
2018-06-08T00:30:53.564Z,101503.17
2018-06-08T00:33:22.744Z,101498.27
2018-06-08T00:35:51.487Z,101502.06
2018-06-08T00:38:20.057Z,101495.58
2018-06-08T00:40:48.929Z,101500.01
2018-06-08T00:43:17.671Z,101498.84
2018-06-08T00:45:46.453Z,101495.83
2018-06-08T00:48:15.583Z,101497.27
2018-06-08T00:50:44.318Z,101497.27
2018-06-08T00:53:12.897Z,101500.41
2018-06-08T00:55:41.793Z,101495.48
2018-06-08T00:58:10.702Z,101498.06
2018-06-08T01:00:39.447Z,101496.30
2018-06-08T01:03:09.039Z,101496.30
2018-06-08T01:05:37.788Z,101484.84
2018-06-08T01:08:06.540Z,101485.23
2018-06-08T01:10:35.642Z,101480.50
2018-06-08T01:13:04.536Z,101477.12
2018-06-08T01:15:33.337Z,101473.55
2018-06-08T01:18:02.386Z,101479.48
2018-06-08T01:20:31.140Z,101477.71
2018-06-08T01:22:59.931Z,101473.39
2018-06-08T01:25:28.967Z,101476.17
2018-06-08T01:27:57.703Z,101481.10
2018-06-08T01:30:26.476Z,101481.30
2018-06-08T01:32:55.528Z,101483.26
2018-06-08T01:35:24.473Z,101485.05
2018-06-08T01:37:53.050Z,101481.13
2018-06-08T01:40:22.420Z,101476.95
2018-06-08T01:42:51.470Z,101477.39
2018-06-08T01:45:26.356Z,101477.76
2018-06-08T01:47:55.247Z,101477.78
2018-06-08T01:50:24.232Z,101480.16
2018-06-08T01:52:53.335Z,101481.13
2018-06-08T01:55:22.072Z,101475.20
2018-06-08T01:57:50.629Z,101478.38
2018-06-08T02:00:19.899Z,101475.80
2018-06-08T02:02:48.983Z,101473.33
2018-06-08T02:05:17.727Z,101477.14
2018-06-08T02:07:46.602Z,101476.51
2018-06-08T02:10:15.349Z,101481.04
2018-06-08T02:12:44.354Z,101476.69
2018-06-08T02:15:13.357Z,101475.09
2018-06-08T02:17:42.088Z,101477.23
2018-06-08T02:20:10.684Z,101472.05
2018-06-08T02:22:39.714Z,101475.70
2018-06-08T02:25:08.368Z,101477.14
2018-06-08T02:27:37.117Z,101483.68
2018-06-08T02:30:06.300Z,101485.28
2018-06-08T02:32:35.056Z,101485.35
2018-06-08T02:35:03.918Z,101480.43
2018-06-08T02:37:33.079Z,101484.08
2018-06-08T02:40:01.877Z,101486.64
2018-06-08T02:42:30.629Z,101484.47
2018-06-08T02:44:59.752Z,101479.25
2018-06-08T02:47:28.506Z,101482.73
2018-06-08T02:49:57.307Z,101479.57
2018-06-08T02:52:26.428Z,101479.09
2018-06-08T02:54:55.204Z,101482.67
2018-06-08T02:57:23.942Z,101482.84
2018-06-08T02:59:52.821Z,101489.94
2018-06-08T03:02:21.731Z,101491.50
2018-06-08T03:04:50.304Z,101487.06
2018-06-08T03:07:19.356Z,101489.66
2018-06-08T03:09:48.079Z,101488.15
2018-06-08T03:12:16.845Z,101488.88
2018-06-08T03:14:46.332Z,101485.79
2018-06-08T03:17:15.075Z,101486.21
2018-06-08T03:19:43.823Z,101487.18
2018-06-08T03:22:12.931Z,101492.66
2018-06-08T03:24:41.700Z,101489.63
2018-06-08T03:27:10.493Z,101488.78
2018-06-08T03:29:39.568Z,101484.03
2018-06-08T03:32:08.335Z,101487.25
2018-06-08T03:34:36.926Z,101487.53
2018-06-08T03:37:05.876Z,101483.60
2018-06-08T03:39:34.672Z,101489.80
2018-06-08T03:42:03.412Z,101479.89
2018-06-08T03:44:32.856Z,101480.93
2018-06-08T03:47:01.609Z,101483.95
2018-06-08T03:49:30.394Z,101480.19
2018-06-08T03:51:59.428Z,101482.43
2018-06-08T03:54:28.171Z,101477.36
2018-06-08T03:56:56.956Z,101471.06
2018-06-08T03:59:25.894Z,101481.91
2018-06-08T04:01:54.632Z,101481.44
2018-06-08T04:04:23.479Z,101478.19
2018-06-08T04:06:52.578Z,101480.87
2018-06-08T04:09:21.320Z,101486.70
2018-06-08T04:11:50.318Z,101493.02
2018-06-08T04:14:19.351Z,101492.64
2018-06-08T04:16:48.010Z,101496.67
2018-06-08T04:19:17.088Z,101495.84
2018-06-08T04:21:46.240Z,101495.16
2018-06-08T04:24:15.007Z,101494.31
2018-06-08T04:26:44.060Z,101488.30
2018-06-08T04:29:13.220Z,101489.41
2018-06-08T04:31:41.974Z,101488.23
2018-06-08T04:34:10.832Z,101490.93
2018-06-08T04:36:39.926Z,101487.78
2018-06-08T04:39:09.279Z,101493.69
2018-06-08T04:41:38.057Z,101492.35
2018-06-08T04:44:07.112Z,101493.23
2018-06-08T04:46:35.868Z,101494.84
2018-06-08T04:49:04.599Z,101494.33
2018-06-08T04:51:33.718Z,101489.11
2018-06-08T04:54:02.539Z,101494.11
2018-06-08T04:56:31.302Z,101495.70
2018-06-08T04:59:00.436Z,101503.05
2018-06-08T05:01:29.179Z,101506.06
2018-06-08T05:03:57.928Z,101498.95
2018-06-08T05:06:27.376Z,101499.78
2018-06-08T05:08:56.133Z,101499.45
2018-06-08T05:11:24.897Z,101505.03
2018-06-08T05:13:53.680Z,101503.98
2018-06-08T05:16:22.443Z,101507.83
2018-06-08T05:18:51.622Z,101509.54
2018-06-08T05:21:20.396Z,101509.74
2018-06-08T05:23:48.981Z,101503.19
2018-06-08T05:26:18.204Z,101500.94
2018-06-08T05:28:46.949Z,101502.05
2018-06-08T05:31:15.772Z,101504.52
2018-06-08T05:33:44.920Z,101511.22
2018-06-08T05:36:13.679Z,101504.66
2018-06-08T05:38:42.694Z,101512.88
2018-06-08T05:41:11.808Z,101521.67
2018-06-08T05:43:40.599Z,101514.00
2018-06-08T05:46:09.351Z,101521.59
2018-06-08T05:48:38.480Z,101527.02
2018-06-08T05:51:07.232Z,101523.02
2018-06-08T05:53:35.982Z,101529.88
2018-06-08T05:56:05.262Z,101527.66
2018-06-08T05:58:33.992Z,101533.71
2018-06-08T06:01:02.612Z,101534.72
2018-06-08T06:03:31.744Z,101538.49
2018-06-08T06:06:00.483Z,101544.73
2018-06-08T06:08:29.307Z,101535.70
2018-06-08T06:10:58.417Z,101538.84
2018-06-08T06:13:27.189Z,101537.47
2018-06-08T06:15:55.928Z,101538.11
2018-06-08T06:18:24.789Z,101534.41
2018-06-08T06:20:53.619Z,101538.50
2018-06-08T06:23:22.205Z,101534.00
2018-06-08T06:25:51.349Z,101536.92
2018-06-08T06:28:20.098Z,101541.36
2018-06-08T06:30:49.401Z,101542.24
2018-06-08T06:33:18.540Z,101540.31
2018-06-08T06:35:47.291Z,101535.40
2018-06-08T06:38:16.109Z,101536.52
2018-06-08T06:40:45.066Z,101545.61
2018-06-08T06:43:14.075Z,101537.32
2018-06-08T06:45:43.250Z,101540.88
2018-06-08T06:48:12.139Z,101546.59
2018-06-08T06:50:40.739Z,101541.23
2018-06-08T06:53:09.556Z,101541.80
2018-06-08T06:55:38.671Z,101540.67
2018-06-08T06:58:07.533Z,101535.31
2018-06-08T07:00:36.264Z,101533.39
2018-06-08T07:03:05.350Z,101527.48
2018-06-08T07:05:34.099Z,101530.36
2018-06-08T07:08:02.846Z,101540.55
2018-06-08T07:10:31.964Z,101544.75
2018-06-08T07:13:00.571Z,101546.23
2018-06-08T07:15:29.347Z,101538.97
2018-06-08T07:17:58.294Z,101536.53
2018-06-08T07:20:27.039Z,101539.91
2018-06-08T07:22:55.948Z,101537.42
2018-06-08T07:25:24.762Z,101549.56
2018-06-08T07:27:53.771Z,101536.12
2018-06-08T07:30:22.849Z,101537.14
2018-06-08T07:32:51.629Z,101538.55
2018-06-08T07:35:20.456Z,101540.55
2018-06-08T07:37:49.607Z,101545.84
2018-06-08T07:40:18.493Z,101538.34
2018-06-08T07:42:47.244Z,101533.72
2018-06-08T07:45:15.878Z,101529.84
2018-06-08T07:47:45.268Z,101537.33
2018-06-08T07:50:14.286Z,101535.13
2018-06-08T07:52:43.407Z,101537.23
2018-06-08T07:55:12.487Z,101531.02
2018-06-08T07:57:41.238Z,101527.11
2018-06-08T08:00:10.132Z,101524.77
2018-06-08T08:02:39.213Z,101530.05
2018-06-08T08:05:07.805Z,101527.34
2018-06-08T08:07:36.560Z,101523.96
2018-06-08T08:10:05.740Z,101519.39
2018-06-08T08:12:34.367Z,101516.52
2018-06-08T08:15:03.240Z,101515.88
2018-06-08T08:17:32.355Z,101520.27
2018-06-08T08:20:00.958Z,101517.47
2018-06-08T08:22:29.984Z,101519.20
2018-06-08T08:24:58.990Z,101519.46
2018-06-08T08:27:27.744Z,101519.77
2018-06-08T08:29:56.516Z,101513.98
2018-06-08T08:32:25.799Z,101517.41
2018-06-08T08:34:54.677Z,101516.95
2018-06-08T08:37:23.759Z,101523.57
2018-06-08T08:39:52.852Z,101528.87
2018-06-08T08:42:21.864Z,101516.59
2018-06-08T08:44:50.712Z,101517.70
2018-06-08T08:47:19.843Z,101524.24
2018-06-08T08:49:48.683Z,101526.65
2018-06-08T08:52:17.728Z,101525.20
2018-06-08T08:54:47.171Z,101534.77
2018-06-08T08:57:15.790Z,101526.47
2018-06-08T08:59:44.570Z,101530.23
2018-06-08T09:02:13.903Z,101525.54
2018-06-08T09:04:42.917Z,101526.47
2018-06-08T09:07:11.704Z,101529.55
2018-06-08T09:09:40.788Z,101524.77
2018-06-08T09:12:09.736Z,101526.88
2018-06-08T09:14:38.587Z,101523.84
2018-06-08T09:17:07.565Z,101521.94
2018-06-08T09:19:36.405Z,101528.24
2018-06-08T09:22:05.206Z,101524.03
2018-06-08T09:24:34.345Z,101521.23
2018-06-08T09:27:03.404Z,101523.11
2018-06-08T09:29:32.168Z,101523.42
2018-06-08T09:32:01.219Z,101522.02
2018-06-08T09:34:29.957Z,101524.23
2018-06-08T09:36:58.766Z,101532.13
2018-06-08T09:39:27.895Z,101518.64
2018-06-08T09:41:56.936Z,101524.36
2018-06-08T09:44:25.953Z,101521.69
2018-06-08T09:46:55.090Z,101523.21
2018-06-08T09:49:24.080Z,101520.97
2018-06-08T09:51:52.695Z,101527.16
2018-06-08T09:54:21.759Z,101520.09
2018-06-08T09:56:50.518Z,101522.05
2018-06-08T09:59:19.251Z,101516.77
2018-06-08T10:01:48.632Z,101518.09
2018-06-08T10:04:17.303Z,101520.53
2018-06-08T10:06:46.040Z,101516.31
2018-06-08T10:09:15.005Z,101522.98
2018-06-08T10:11:43.748Z,101522.59
2018-06-08T10:14:12.455Z,101517.84
2018-06-08T10:16:41.507Z,101515.95
2018-06-08T10:19:10.335Z,101516.58
2018-06-08T10:21:39.120Z,101505.97
2018-06-08T10:24:08.032Z,101512.28
2018-06-08T10:26:36.779Z,101508.48
2018-06-08T10:29:05.598Z,101508.53
2018-06-08T10:31:34.578Z,101504.02
2018-06-08T10:34:03.382Z,101501.30
2018-06-08T10:36:32.206Z,101500.84
2018-06-08T10:39:01.306Z,101502.79
2018-06-08T10:41:30.166Z,101502.34
2018-06-08T10:43:58.900Z,101505.33
2018-06-08T10:46:27.936Z,101503.05
2018-06-08T10:48:56.903Z,101500.41
2018-06-08T10:51:25.659Z,101496.18
2018-06-08T10:53:54.859Z,101497.23
2018-06-08T10:56:23.831Z,101504.24
2018-06-08T10:58:52.588Z,101492.81
2018-06-08T11:01:21.640Z,101489.28
2018-06-08T11:03:50.367Z,101493.77
2018-06-08T11:06:19.168Z,101497.95
2018-06-08T11:08:47.946Z,101497.42
2018-06-08T11:11:16.614Z,101501.98
2018-06-08T11:13:45.657Z,101486.98
2018-06-08T11:16:15.030Z,101493.47
2018-06-08T11:18:43.816Z,101498.34
2018-06-08T11:21:12.564Z,101488.34
2018-06-08T11:23:41.771Z,101491.91
2018-06-08T11:26:10.509Z,101488.39
2018-06-08T11:28:39.332Z,101486.98
2018-06-08T11:31:08.446Z,101483.03
2018-06-08T11:33:37.179Z,101482.80
2018-06-08T11:36:05.755Z,101477.45
2018-06-08T11:38:34.775Z,101481.37
2018-06-08T11:41:03.556Z,101479.83
2018-06-08T11:43:32.356Z,101483.02
2018-06-08T11:46:01.497Z,101480.05
2018-06-08T11:48:30.247Z,101470.58
2018-06-08T11:50:58.997Z,101473.62
2018-06-08T11:53:28.066Z,101470.63
2018-06-08T11:55:56.703Z,101471.31
2018-06-08T11:58:25.440Z,101469.42
2018-06-08T12:00:54.448Z,101466.41
2018-06-08T12:03:23.193Z,101461.63
2018-06-08T12:05:52.257Z,101453.80
2018-06-08T12:08:21.335Z,101448.64
2018-06-08T12:10:49.951Z,101453.14
2018-06-08T12:13:18.687Z,101442.53
2018-06-08T12:15:47.788Z,101444.23
2018-06-08T12:18:16.508Z,101436.41
2018-06-08T12:20:45.296Z,101443.37
2018-06-08T12:23:14.355Z,101442.27
2018-06-08T12:25:43.104Z,101435.80
2018-06-08T12:28:11.852Z,101430.83
2018-06-08T12:30:40.974Z,101432.41
2018-06-08T12:33:10.024Z,101432.53
2018-06-08T12:35:38.768Z,101436.77
2018-06-08T12:38:07.811Z,101426.67
2018-06-08T12:40:36.594Z,101432.05
2018-06-08T12:43:05.355Z,101436.97
2018-06-08T12:45:40.552Z,101426.33
2018-06-08T12:48:09.297Z,101424.69
2018-06-08T12:50:38.055Z,101427.61
2018-06-08T12:53:07.002Z,101429.94
2018-06-08T12:55:36.003Z,101437.85
2018-06-08T12:58:04.783Z,101434.81
2018-06-08T13:00:33.834Z,101433.88
2018-06-08T13:03:02.415Z,101435.68
2018-06-08T13:05:31.002Z,101434.56
2018-06-08T13:07:59.979Z,101443.64
2018-06-08T13:10:28.566Z,101446.01
2018-06-08T13:12:57.297Z,101444.73
2018-06-08T13:15:26.420Z,101442.70
2018-06-08T13:17:55.492Z,101440.27
2018-06-08T13:20:24.306Z,101434.00
2018-06-08T13:22:53.713Z,101424.04
2018-06-08T13:25:22.454Z,101425.91
2018-06-08T13:27:51.203Z,101423.87
2018-06-08T13:30:20.574Z,101420.13
2018-06-08T13:32:49.376Z,101422.99
2018-06-08T13:35:18.588Z,101423.36
2018-06-08T13:37:47.771Z,101425.21
2018-06-08T13:40:16.515Z,101427.01
2018-06-08T13:42:45.118Z,101431.72
2018-06-08T13:45:20.294Z,101427.03
2018-06-08T13:47:49.039Z,101429.86
2018-06-08T13:50:17.783Z,101433.51
2018-06-08T13:52:46.903Z,101426.68
2018-06-08T13:55:15.703Z,101428.11
2018-06-08T13:57:44.292Z,101435.05
2018-06-08T14:00:13.175Z,101434.56
2018-06-08T14:02:41.761Z,101436.20
2018-06-08T14:05:10.337Z,101437.02
2018-06-08T14:07:39.435Z,101435.62
2018-06-08T14:10:08.188Z,101432.53
2018-06-08T14:12:37.178Z,101430.75
2018-06-08T14:15:06.093Z,101431.13
2018-06-08T14:17:34.839Z,101428.73
2018-06-08T14:20:03.737Z,101426.27
2018-06-08T14:22:32.852Z,101421.77
2018-06-08T14:25:01.611Z,101419.06
2018-06-08T14:27:30.743Z,101414.66
2018-06-08T14:29:59.841Z,101414.00
2018-06-08T14:32:28.626Z,101408.34
2018-06-08T14:35:00.283Z,101411.11
2018-06-08T14:37:29.092Z,101399.28
2018-06-08T14:39:57.821Z,101403.64
2018-06-08T14:42:26.771Z,101403.03
2018-06-08T14:44:55.563Z,101399.16
2018-06-08T14:47:24.604Z,101399.44
2018-06-08T14:49:53.695Z,101401.31
2018-06-08T14:52:22.523Z,101402.48
2018-06-08T14:54:51.260Z,101401.59
2018-06-08T14:57:20.516Z,101401.39
2018-06-08T14:59:49.258Z,101398.30
2018-06-08T15:02:23.218Z,101398.30
2018-06-08T15:04:51.947Z,101402.70
2018-06-08T15:07:20.791Z,101404.49
2018-06-08T15:09:50.200Z,101406.84
2018-06-08T15:12:19.140Z,101402.92
2018-06-08T15:14:47.717Z,101397.16
2018-06-08T15:17:16.800Z,101396.86
2018-06-08T15:19:45.583Z,101396.52
2018-06-08T15:22:14.366Z,101389.36
2018-06-08T15:24:43.448Z,101390.44
2018-06-08T15:27:12.199Z,101394.50
2018-06-08T15:29:40.935Z,101391.02
2018-06-08T15:32:10.025Z,101389.34
2018-06-08T15:34:38.800Z,101397.47
2018-06-08T15:37:07.866Z,101397.39
2018-06-08T15:39:36.880Z,101398.89
2018-06-08T15:42:06.144Z,101404.19
2018-06-08T15:44:34.938Z,101406.63
2018-06-08T15:47:03.987Z,101396.48
2018-06-08T15:49:33.047Z,101400.97
2018-06-08T15:52:01.816Z,101398.53
2018-06-08T15:54:30.666Z,101401.09
2018-06-08T15:56:59.464Z,101397.30
2018-06-08T15:59:28.209Z,101400.51
2018-06-08T16:01:57.347Z,101395.77
2018-06-08T16:04:26.091Z,101392.05
2018-06-08T16:06:54.843Z,101394.45
2018-06-08T16:09:24.019Z,101392.19
2018-06-08T16:11:52.761Z,101384.61
2018-06-08T16:14:21.509Z,101383.65
2018-06-08T16:16:50.828Z,101386.84
2018-06-08T16:19:19.410Z,101386.91
2018-06-08T16:21:48.220Z,101378.69
2018-06-08T16:24:17.091Z,101385.22
2018-06-08T16:26:45.846Z,101383.88
2018-06-08T16:29:14.573Z,101385.60
2018-06-08T16:31:43.882Z,101381.57
2018-06-08T16:34:12.677Z,101382.64
2018-06-08T16:36:41.241Z,101386.95
2018-06-08T16:39:10.411Z,101378.20
2018-06-08T16:41:39.180Z,101378.97
2018-06-08T16:44:08.005Z,101381.92
2018-06-08T16:46:37.199Z,101380.61
2018-06-08T16:49:05.957Z,101382.53
2018-06-08T16:51:34.712Z,101387.03
2018-06-08T16:54:03.665Z,101383.63
2018-06-08T16:56:32.410Z,101386.17
2018-06-08T16:59:01.216Z,101385.27
2018-06-08T17:01:30.520Z,101389.36
2018-06-08T17:03:59.266Z,101383.02
2018-06-08T17:06:28.032Z,101379.62
2018-06-08T17:08:57.120Z,101379.56
2018-06-08T17:11:26.122Z,101372.09
2018-06-08T17:13:54.876Z,101380.98
2018-06-08T17:16:23.894Z,101381.70
2018-06-08T17:18:52.616Z,101381.41
2018-06-08T17:21:21.627Z,101379.33
2018-06-08T17:23:50.492Z,101378.58
2018-06-08T17:26:19.511Z,101378.60
2018-06-08T17:28:48.466Z,101379.52
2018-06-08T17:31:17.220Z,101378.56
2018-06-08T17:33:45.974Z,101376.25
2018-06-08T17:36:15.036Z,101380.30
2018-06-08T17:38:43.784Z,101386.32
2018-06-08T17:41:12.527Z,101383.64
2018-06-08T17:43:41.858Z,101390.95
2018-06-08T17:46:10.526Z,101395.11
2018-06-08T17:48:39.323Z,101399.00
2018-06-08T17:51:08.389Z,101400.97
2018-06-08T17:53:37.148Z,101409.02
2018-06-08T17:56:05.936Z,101406.74
2018-06-08T17:58:35.352Z,101416.26
2018-06-08T18:01:04.168Z,101409.11
2018-06-08T18:03:32.907Z,101410.15
2018-06-08T18:06:02.346Z,101409.47
2018-06-08T18:08:31.082Z,101413.13
2018-06-08T18:10:59.652Z,101410.09
2018-06-08T18:13:28.771Z,101410.89
2018-06-08T18:15:57.516Z,101414.65
2018-06-08T18:18:26.287Z,101415.80
2018-06-08T18:20:56.079Z,101425.78
2018-06-08T18:23:24.840Z,101424.84
2018-06-08T18:25:53.619Z,101424.94
2018-06-08T18:28:22.630Z,101421.94
2018-06-08T18:30:51.209Z,101426.73
2018-06-08T18:33:19.848Z,101424.23
2018-06-08T18:35:48.958Z,101436.20
2018-06-08T18:38:17.978Z,101432.00
2018-06-08T18:40:46.665Z,101429.97
2018-06-08T18:43:15.731Z,101439.75
2018-06-08T18:45:47.783Z,101440.98
2018-06-08T18:48:17.158Z,101444.72
2018-06-08T18:50:46.308Z,101442.89
2018-06-08T18:53:15.471Z,101441.06
2018-06-08T18:55:44.511Z,101449.48
2018-06-08T18:58:13.840Z,101449.33
2018-06-08T19:00:42.672Z,101443.31
2018-06-08T19:03:11.788Z,101441.39
2018-06-08T19:05:40.544Z,101439.81
2018-06-08T19:08:09.284Z,101439.41
2018-06-08T19:10:38.469Z,101448.09
2018-06-08T19:13:07.196Z,101444.81
2018-06-08T19:15:35.996Z,101445.83
2018-06-08T19:18:05.507Z,101438.83
2018-06-08T19:20:34.247Z,101438.83
2018-06-08T19:23:03.008Z,101433.14
2018-06-08T19:25:32.124Z,101438.52
2018-06-08T19:28:00.782Z,101436.41
2018-06-08T19:30:29.639Z,101440.16
2018-06-08T19:32:58.530Z,101435.93
2018-06-08T19:35:27.138Z,101431.95
2018-06-08T19:37:55.866Z,101438.88
2018-06-08T19:40:27.043Z,101438.55
2018-06-08T19:42:55.952Z,101437.16
2018-06-08T19:45:31.855Z,101437.31
2018-06-08T19:48:00.592Z,101439.98
2018-06-08T19:50:29.462Z,101441.85
2018-06-08T19:52:58.539Z,101438.65
2018-06-08T19:55:27.291Z,101440.55
2018-06-08T19:57:56.037Z,101444.53
2018-06-08T20:00:25.213Z,101444.96
2018-06-08T20:02:54.690Z,101450.97
2018-06-08T20:05:23.549Z,101453.80
2018-06-08T20:07:52.600Z,101452.62
2018-06-08T20:10:21.386Z,101461.57
2018-06-08T20:12:50.217Z,101463.45
2018-06-08T20:15:19.524Z,101467.80
2018-06-08T20:17:48.275Z,101468.20
2018-06-08T20:20:17.019Z,101463.89
2018-06-08T20:22:46.063Z,101470.67
2018-06-08T20:25:14.796Z,101469.11
2018-06-08T20:27:43.840Z,101469.23
2018-06-08T20:30:12.859Z,101471.83
2018-06-08T20:32:41.620Z,101470.23
2018-06-08T20:35:10.397Z,101464.14
2018-06-08T20:37:39.523Z,101468.48
2018-06-08T20:40:08.312Z,101463.59
2018-06-08T20:42:37.059Z,101462.16
2018-06-08T20:45:06.195Z,101465.09
2018-06-08T20:47:34.980Z,101470.72
2018-06-08T20:50:03.805Z,101466.19
2018-06-08T20:52:33.070Z,101466.89
2018-06-08T20:55:01.832Z,101465.95
2018-06-08T20:57:30.827Z,101467.48
2018-06-08T20:59:59.947Z,101460.02
2018-06-08T21:02:29.004Z,101460.22
2018-06-08T21:04:57.849Z,101454.00
2018-06-08T21:07:27.711Z,101453.55
2018-06-08T21:09:56.460Z,101455.54
2018-06-08T21:12:26.032Z,101456.39
2018-06-08T21:14:55.170Z,101455.39
2018-06-08T21:17:24.059Z,101449.23
2018-06-08T21:19:52.806Z,101453.09
2018-06-08T21:22:21.859Z,101451.50
2018-06-08T21:24:50.605Z,101449.94
2018-06-08T21:27:19.364Z,101460.68
2018-06-08T21:29:48.499Z,101460.48
2018-06-08T21:32:17.230Z,101457.52
2018-06-08T21:34:45.804Z,101468.55
2018-06-08T21:37:14.867Z,101466.13
2018-06-08T21:39:43.606Z,101468.55
2018-06-08T21:42:12.824Z,101467.36
2018-06-08T21:44:41.946Z,101470.53
2018-06-08T21:47:10.694Z,101473.03
2018-06-08T21:49:39.434Z,101473.09
2018-06-08T21:52:08.524Z,101471.05
2018-06-08T21:54:37.270Z,101468.10
2018-06-08T21:57:06.359Z,101471.85
2018-06-08T21:59:35.302Z,101471.05
2018-06-08T22:02:04.242Z,101478.00
2018-06-08T22:04:33.458Z,101475.91
2018-06-08T22:07:02.305Z,101480.34
2018-06-08T22:09:31.124Z,101476.98
2018-06-08T22:12:00.284Z,101475.91
2018-06-08T22:14:29.288Z,101470.90
2018-06-08T22:16:58.037Z,101472.81
2018-06-08T22:19:27.159Z,101470.30
2018-06-08T22:21:55.932Z,101467.16
2018-06-08T22:24:24.682Z,101471.27
2018-06-08T22:26:53.865Z,101466.39
2018-06-08T22:29:22.600Z,101471.90
2018-06-08T22:31:51.731Z,101465.05
2018-06-08T22:34:20.771Z,101473.45
2018-06-08T22:36:49.361Z,101472.83
2018-06-08T22:39:18.098Z,101466.14
2018-06-08T22:41:47.083Z,101467.09
2018-06-08T22:44:15.869Z,101457.52
2018-06-08T22:46:44.592Z,101451.20
2018-06-08T22:49:13.621Z,101446.30
2018-06-08T22:51:42.813Z,101452.84
2018-06-08T22:54:11.911Z,101442.45
2018-06-08T22:56:41.151Z,101438.94
2018-06-08T22:59:09.896Z,101438.89
2018-06-08T23:01:38.675Z,101444.63
2018-06-08T23:04:07.623Z,101448.16
2018-06-08T23:06:36.353Z,101444.61
2018-06-08T23:09:08.278Z,101443.99
2018-06-08T23:11:37.635Z,101451.92
2018-06-08T23:14:06.380Z,101453.98
2018-06-08T23:16:35.464Z,101451.02
2018-06-08T23:19:04.419Z,101456.81
2018-06-08T23:21:33.205Z,101455.48
2018-06-08T23:24:02.369Z,101461.13
2018-06-08T23:26:31.109Z,101452.33
2018-06-08T23:28:59.847Z,101455.10
2018-06-08T23:31:28.904Z,101447.97
2018-06-08T23:33:57.529Z,101452.00
2018-06-08T23:36:26.932Z,101445.59
2018-06-08T23:38:55.660Z,101449.88
2018-06-08T23:41:24.387Z,101449.88
2018-06-08T23:43:53.429Z,101447.31
2018-06-08T23:46:22.211Z,101451.28
2018-06-08T23:48:50.938Z,101451.80
2018-06-08T23:51:20.060Z,101446.04
2018-06-08T23:53:48.852Z,101452.42
2018-06-08T23:56:17.563Z,101449.90
2018-06-08T23:58:46.624Z,101450.24
